Weather History for Temple, TX

Change the Weather History Date:

Monday, November 18, 2013

  Actual Average Record
Temperature  
Mean Temperature 66 °F -  
Max Temperature 75 °F 65 °F 80 °F (1999)
Min Temperature 57 °F 46 °F 35 °F (2006)
Cooling Degree Days 1    
Growing Degree Days 16 (Base 50)    
Moisture  
Dew Point 42 °F    
Average Humidity 46    
Maximum Humidity 72    
Minimum Humidity 34    
Precipitation  
Precipitation 0.00 in - - ()
Sea Level Pressure  
Sea Level Pressure 30.09 in    
Wind  
Wind Speed 9 mph (NNE)    
Max Wind Speed 14 mph    
Max Gust Speed 20 mph    
Visibility 10 miles    
Events      
Averages and records for this station are not official NWS values.
T = Trace of Precipitation, MM = Missing Value Source: NWS Daily Summary

Daily Weather History Graph

Daily Weather History Graph

Search for Another Location

Airport:

Trip Planner

Search our weather history database for the weather conditions in past years. The results will help you decide how hot, cold, wet, or windy it might be!

Date:

Astronomy

Nov. 18, 2013 Rise Set
Actual Time 6:59 AM CST 5:29 PM CST
Civil Twilight 6:33 AM CST 5:55 PM CST
Nautical Twilight 6:04 AM CST 6:25 PM CST
Astronomical Twilight 5:35 AM CST 6:53 PM CST
Moon 6:34 PM CST (11/18) 7:48 AM CST (11/18)
Length of Visible Light 11h 21m
Length of Day
10h 30m
Full, 99% of the Moon is Illuminated
Nov 18
Full
Nov 25
Last Quarter
Dec 2
New
Dec 9
First Quarter
Dec 17
Full

Hourly Weather History & Observations

Time (CST) Temp. Dew Point Humidity Pressure Visibility Wind Dir Wind Speed Gust Speed Precip Events Conditions
12:15 AM 57.2 °F 48.2 °F 72% 29.97 in 10.0 mi NW 8.1 mph - N/A   Clear
12:35 AM 57.2 °F 48.2 °F 72% 29.98 in 10.0 mi NW 5.8 mph - N/A   Clear
12:55 AM 57.2 °F 48.2 °F 72% 29.98 in 10.0 mi NNW 10.4 mph - N/A   Clear
1:15 AM 59.0 °F 48.2 °F 67% 29.98 in 10.0 mi NNW 9.2 mph - N/A   Clear
1:35 AM 59.0 °F 48.2 °F 67% 29.99 in 10.0 mi North 9.2 mph - N/A   Clear
1:55 AM 59.0 °F 48.2 °F 67% 29.99 in 10.0 mi North 9.2 mph - N/A   Clear
2:15 AM 59.0 °F 46.4 °F 63% 30.00 in 10.0 mi North 9.2 mph - N/A   Clear
2:35 AM 59.0 °F 46.4 °F 63% 30.00 in 10.0 mi North 9.2 mph - N/A   Clear
2:55 AM 59.0 °F 46.4 °F 63% 30.00 in 10.0 mi North 8.1 mph - N/A   Clear
3:15 AM 60.8 °F 44.6 °F 55% 30.01 in 10.0 mi North 9.2 mph - N/A   Clear
3:35 AM 60.8 °F 42.8 °F 52% 30.01 in 10.0 mi North 8.1 mph - N/A   Clear
3:55 AM 60.8 °F 42.8 °F 52% 30.02 in 10.0 mi North 9.2 mph - N/A   Clear
4:15 AM 60.8 °F 41.0 °F 48% 30.02 in 10.0 mi North 9.2 mph - N/A   Clear
4:35 AM 60.8 °F 41.0 °F 48% 30.03 in 10.0 mi North 8.1 mph - N/A   Clear
4:55 AM 59.0 °F 41.0 °F 51% 30.03 in 10.0 mi North 6.9 mph - N/A   Clear
5:15 AM 59.0 °F 41.0 °F 51% 30.04 in 10.0 mi North 5.8 mph - N/A   Clear
5:35 AM 57.2 °F 41.0 °F 55% 30.05 in 10.0 mi North 6.9 mph - N/A   Clear
5:55 AM 57.2 °F 41.0 °F 55% 30.06 in 10.0 mi North 8.1 mph - N/A   Clear
6:15 AM 57.2 °F 41.0 °F 55% 30.06 in 10.0 mi North 8.1 mph - N/A   Clear
6:35 AM 57.2 °F 41.0 °F 55% 30.07 in 10.0 mi North 9.2 mph - N/A   Clear
6:55 AM 57.2 °F 41.0 °F 55% 30.08 in 10.0 mi North 9.2 mph - N/A   Clear
7:15 AM 57.2 °F 41.0 °F 55% 30.09 in 10.0 mi North 8.1 mph - N/A   Clear
7:35 AM 57.2 °F 41.0 °F 55% 30.10 in 10.0 mi North 6.9 mph - N/A   Clear
7:55 AM 59.0 °F 41.0 °F 51% 30.11 in 10.0 mi North 6.9 mph - N/A   Clear
8:15 AM 59.0 °F 42.8 °F 55% 30.11 in 10.0 mi North 6.9 mph - N/A   Clear
8:35 AM 60.8 °F 42.8 °F 52% 30.11 in 10.0 mi NNE 6.9 mph - N/A   Clear
8:55 AM 62.6 °F 42.8 °F 48% 30.12 in 10.0 mi NNE 8.1 mph - N/A   Partly Cloudy
9:15 AM 62.6 °F 41.0 °F 45% 30.13 in 10.0 mi NNE 10.4 mph - N/A   Mostly Cloudy
9:35 AM 64.4 °F 42.8 °F 45% 30.13 in 10.0 mi NNE 11.5 mph - N/A   Mostly Cloudy
9:55 AM 64.4 °F 41.0 °F 42% 30.13 in 6.0 mi NE 9.2 mph - N/A   Mostly Cloudy
10:15 AM 66.2 °F 41.0 °F 40% 30.13 in 7.0 mi NE 10.4 mph - N/A   Mostly Cloudy
10:35 AM 64.4 °F 39.2 °F 40% 30.13 in 10.0 mi NE 12.7 mph 19.6 mph N/A   Overcast
10:55 AM 66.2 °F 42.8 °F 43% 30.13 in 10.0 mi NE 13.8 mph - N/A   Overcast
11:15 AM 66.2 °F 42.8 °F 43% 30.13 in 10.0 mi ENE 12.7 mph - N/A   Scattered Clouds
11:35 AM 68.0 °F 42.8 °F 40% 30.12 in 10.0 mi ENE 11.5 mph - N/A   Clear
11:55 AM 69.8 °F 42.8 °F 38% 30.12 in 10.0 mi NE 9.2 mph - N/A   Clear
12:15 PM 71.6 °F 42.8 °F 35% 30.12 in 10.0 mi ENE 11.5 mph - N/A   Clear
12:35 PM 71.6 °F 42.8 °F 35% 30.10 in 10.0 mi NE 5.8 mph - N/A   Partly Cloudy
12:55 PM 71.6 °F 44.6 °F 38% 30.10 in 10.0 mi ENE 10.4 mph - N/A   Mostly Cloudy
1:15 PM 73.4 °F 44.6 °F 36% 30.09 in 10.0 mi NE 9.2 mph - N/A   Overcast
1:35 PM 73.4 °F 44.6 °F 36% 30.08 in 10.0 mi NE 9.2 mph - N/A   Mostly Cloudy
1:55 PM 75.2 °F 46.4 °F 36% 30.08 in 10.0 mi NNE 8.1 mph - N/A   Overcast
2:15 PM 73.4 °F 44.6 °F 36% 30.08 in 10.0 mi NE 10.4 mph - N/A   Overcast
2:35 PM 75.2 °F 44.6 °F 34% 30.07 in 10.0 mi NNE 9.2 mph - N/A   Overcast
2:55 PM 73.4 °F 46.4 °F 38% 30.07 in 10.0 mi NNE 9.2 mph - N/A   Overcast
3:15 PM 73.4 °F 46.4 °F 38% 30.07 in 10.0 mi NE 6.9 mph - N/A   Overcast
3:35 PM 73.4 °F 44.6 °F 36% 30.08 in 10.0 mi NNE 10.4 mph - N/A   Scattered Clouds
3:55 PM 71.6 °F 44.6 °F 38% 30.08 in 10.0 mi NE 10.4 mph - N/A   Scattered Clouds
4:15 PM 73.4 °F 44.6 °F 36% 30.08 in 10.0 mi NNE 9.2 mph - N/A   Mostly Cloudy
4:35 PM 71.6 °F 42.8 °F 35% 30.09 in 10.0 mi NNE 8.1 mph - N/A   Mostly Cloudy
4:55 PM 71.6 °F 42.8 °F 35% 30.10 in 10.0 mi NE 9.2 mph - N/A   Overcast
5:15 PM 69.8 °F 42.8 °F 38% 30.10 in 10.0 mi NE 8.1 mph - N/A   Overcast
5:35 PM 69.8 °F 42.8 °F 38% 30.10 in 10.0 mi NE 6.9 mph - N/A   Mostly Cloudy
5:55 PM 68.0 °F 41.0 °F 37% 30.11 in 10.0 mi NNE 5.8 mph - N/A   Scattered Clouds
6:15 PM 68.0 °F 42.8 °F 40% 30.11 in 10.0 mi NNE 6.9 mph - N/A   Mostly Cloudy
6:35 PM 68.0 °F 41.0 °F 37% 30.12 in 10.0 mi NNE 6.9 mph - N/A   Overcast
6:55 PM 68.0 °F 39.2 °F 35% 30.13 in 10.0 mi NE 8.1 mph - N/A   Overcast
7:15 PM 66.2 °F 39.2 °F 37% 30.13 in 10.0 mi NE 9.2 mph - N/A   Overcast
7:35 PM 64.4 °F 39.2 °F 40% 30.13 in 10.0 mi ENE 9.2 mph - N/A   Partly Cloudy
7:55 PM 64.4 °F 39.2 °F 40% 30.13 in 10.0 mi NE 9.2 mph - N/A   Clear
8:15 PM 64.4 °F 37.4 °F 37% 30.13 in 10.0 mi NE 9.2 mph - N/A   Partly Cloudy
8:35 PM 64.4 °F 37.4 °F 37% 30.14 in 10.0 mi ENE 11.5 mph - N/A   Partly Cloudy
8:55 PM 64.4 °F 37.4 °F 37% 30.14 in 10.0 mi NE 9.2 mph - N/A   Clear
9:15 PM 64.4 °F 37.4 °F 37% 30.15 in 10.0 mi NE 9.2 mph - N/A   Clear
9:35 PM 62.6 °F 37.4 °F 39% 30.14 in 10.0 mi ENE 11.5 mph - N/A   Clear
9:55 PM 62.6 °F 37.4 °F 39% 30.14 in 10.0 mi ENE 12.7 mph - N/A   Clear
10:15 PM 62.6 °F 37.4 °F 39% 30.13 in 10.0 mi ENE 13.8 mph 17.3 mph N/A   Clear
10:35 PM 62.6 °F 37.4 °F 39% 30.13 in 10.0 mi East 11.5 mph - N/A   Clear
10:55 PM 62.6 °F 37.4 °F 39% 30.13 in 10.0 mi ENE 10.4 mph - N/A   Clear
11:15 PM 62.6 °F 37.4 °F 39% 30.14 in 10.0 mi ENE 6.9 mph - N/A   Clear
11:35 PM 60.8 °F 37.4 °F 42% 30.13 in 10.0 mi East 5.8 mph - N/A   Clear
11:55 PM 60.8 °F 37.4 °F 42% 30.12 in 10.0 mi East 9.2 mph - N/A   Clear